createdAt,value
2023-04-02T00:00:03.938Z,5.03
2023-04-02T00:00:18.076Z,3.83
2023-04-02T00:00:29.584Z,6.25
2023-04-02T00:01:00.934Z,5.70
2023-04-02T00:01:35.845Z,3.17
2023-04-02T00:01:47.264Z,6.07
2023-04-02T00:02:23.228Z,5.72
2023-04-02T00:02:34.868Z,3.65
2023-04-02T00:02:55.565Z,3.60
2023-04-02T00:03:08.398Z,4.05
2023-04-02T00:03:20.005Z,5.38
2023-04-02T00:03:40.784Z,5.68
2023-04-02T00:03:58.225Z,7.63
2023-04-02T00:04:16.467Z,9.55
2023-04-02T00:04:28.136Z,5.95
2023-04-02T00:04:39.565Z,4.82
2023-04-02T00:05:25.214Z,3.33
2023-04-02T00:05:41.412Z,4.38
2023-04-02T00:05:52.874Z,5.13
2023-04-02T00:06:30.276Z,5.43
2023-04-02T00:06:43.488Z,10.48
2023-04-02T00:07:16.478Z,5.97
2023-04-02T00:07:31.171Z,4.30
2023-04-02T00:07:43.667Z,7.05
2023-04-02T00:07:55.182Z,7.37
2023-04-02T00:08:18.707Z,6.63
2023-04-02T00:08:38.083Z,4.80
2023-04-02T00:08:49.590Z,7.32
2023-04-02T00:09:28.884Z,7.88
2023-04-02T00:09:40.330Z,4.28
2023-04-02T00:09:51.787Z,5.10
2023-04-02T00:10:03.583Z,5.25
2023-04-02T00:10:47.480Z,5.10
2023-04-02T00:11:02.265Z,4.22
2023-04-02T00:11:13.727Z,3.35
2023-04-02T00:11:33.886Z,3.10
2023-04-02T00:11:48.413Z,5.25
2023-04-02T00:12:13.404Z,6.72
2023-04-02T00:12:25.395Z,5.05
2023-04-02T00:12:36.881Z,5.20
2023-04-02T00:13:04.282Z,5.28
2023-04-02T00:13:15.588Z,5.43
2023-04-02T00:13:33.466Z,6.10
2023-04-02T00:13:46.097Z,5.13
2023-04-02T00:14:01.233Z,4.55
2023-04-02T00:14:22.840Z,4.22
2023-04-02T00:14:34.571Z,3.83
2023-04-02T00:14:48.685Z,4.35
2023-04-02T00:15:00.179Z,4.63
2023-04-02T00:15:13.009Z,6.43
2023-04-02T00:15:24.450Z,7.22
2023-04-02T00:15:37.720Z,7.32
2023-04-02T00:15:57.498Z,5.82
2023-04-02T00:16:17.266Z,3.83
2023-04-02T00:16:29.511Z,5.25
2023-04-02T00:16:41.468Z,6.22
2023-04-02T00:16:54.951Z,5.18
2023-04-02T00:17:06.798Z,4.05
2023-04-02T00:17:19.676Z,5.28
2023-04-02T00:17:31.122Z,6.60
2023-04-02T00:17:42.578Z,6.07
2023-04-02T00:17:54.232Z,5.32
2023-04-02T00:18:06.297Z,4.88
2023-04-02T00:18:21.109Z,6.90
2023-04-02T00:18:34.025Z,8.05
2023-04-02T00:18:50.310Z,5.70
2023-04-02T00:19:06.484Z,3.90
2023-04-02T00:19:38.495Z,4.50
2023-04-02T00:19:56.835Z,4.93
2023-04-02T00:20:08.785Z,5.68
2023-04-02T00:20:21.760Z,5.72
2023-04-02T00:20:37.462Z,5.35
2023-04-02T00:20:53.760Z,7.03
2023-04-02T00:21:21.269Z,5.78
2023-04-02T00:21:37.284Z,7.82
2023-04-02T00:21:51.358Z,7.10
2023-04-02T00:22:07.405Z,4.45
2023-04-02T00:22:21.897Z,5.95
2023-04-02T00:22:33.307Z,5.47
2023-04-02T00:22:44.926Z,2.95
2023-04-02T00:22:56.793Z,4.15
2023-04-02T00:23:12.121Z,5.57
2023-04-02T00:23:23.738Z,5.38
2023-04-02T00:23:40.922Z,4.13
2023-04-02T00:23:55.184Z,4.65
2023-04-02T00:24:19.385Z,4.50
2023-04-02T00:24:32.547Z,3.60
2023-04-02T00:24:44.089Z,3.00
2023-04-02T00:24:56.534Z,2.50
2023-04-02T00:25:13.629Z,2.85
2023-04-02T00:25:27.715Z,6.00
2023-04-02T00:25:44.090Z,6.18
2023-04-02T00:25:55.579Z,3.10
2023-04-02T00:26:25.456Z,2.67
2023-04-02T00:26:39.956Z,2.97
2023-04-02T00:26:53.819Z,4.15
2023-04-02T00:27:10.425Z,5.43
2023-04-02T00:27:21.959Z,5.00
2023-04-02T00:27:33.333Z,3.42
2023-04-02T00:27:45.253Z,3.25
2023-04-02T00:27:56.825Z,3.38
2023-04-02T00:28:20.363Z,3.88
2023-04-02T00:28:31.992Z,3.63
2023-04-02T00:28:43.402Z,3.40
2023-04-02T00:28:55.003Z,3.10
2023-04-02T00:29:09.788Z,2.33
2023-04-02T00:29:21.700Z,3.65
2023-04-02T00:29:33.113Z,3.55
2023-04-02T00:29:52.786Z,2.80
2023-04-02T00:30:04.772Z,4.57
2023-04-02T00:30:16.463Z,4.65
2023-04-02T00:30:28.158Z,2.78
2023-04-02T00:31:06.128Z,3.15
2023-04-02T00:31:20.224Z,2.90
2023-04-02T00:31:32.577Z,4.38
2023-04-02T00:31:50.334Z,4.05
2023-04-02T00:32:02.204Z,2.72
2023-04-02T00:32:29.141Z,3.50
2023-04-02T00:32:40.791Z,2.35
2023-04-02T00:32:52.617Z,2.85
2023-04-02T00:33:04.109Z,3.05
2023-04-02T00:33:18.394Z,2.35
2023-04-02T00:33:31.605Z,2.28
2023-04-02T00:33:43.863Z,2.67
2023-04-02T00:33:55.431Z,3.10
2023-04-02T00:34:09.926Z,3.28
2023-04-02T00:34:21.257Z,2.67
2023-04-02T00:34:37.074Z,1.88
2023-04-02T00:34:48.938Z,1.50
2023-04-02T00:35:00.922Z,1.80
2023-04-02T00:35:20.436Z,2.17
2023-04-02T00:35:32.060Z,2.47
2023-04-02T00:35:43.543Z,2.65
2023-04-02T00:35:56.081Z,2.70
2023-04-02T00:36:08.882Z,4.20
2023-04-02T00:36:23.129Z,3.83
2023-04-02T00:36:35.462Z,2.55
2023-04-02T00:36:48.854Z,2.17
2023-04-02T00:37:00.658Z,2.00
2023-04-02T00:37:18.635Z,1.95
2023-04-02T00:37:33.363Z,2.15
2023-04-02T00:37:44.876Z,2.47
2023-04-02T00:37:56.725Z,2.45
2023-04-02T00:38:17.752Z,2.00
2023-04-02T00:38:34.765Z,1.63
2023-04-02T00:38:47.540Z,2.95
2023-04-02T00:39:03.094Z,2.72
2023-04-02T00:39:25.394Z,1.70
2023-04-02T00:39:39.387Z,2.28
2023-04-02T00:40:01.545Z,1.98
2023-04-02T00:40:33.259Z,1.80
2023-04-02T00:40:46.387Z,2.85
2023-04-02T00:41:01.918Z,2.33
2023-04-02T00:41:22.523Z,4.60
2023-04-02T00:41:37.375Z,3.97
2023-04-02T00:41:51.382Z,1.98
2023-04-02T00:42:05.285Z,2.05
2023-04-02T00:42:18.513Z,2.45
2023-04-02T00:42:33.350Z,2.63
2023-04-02T00:42:47.596Z,2.50
2023-04-02T00:43:00.218Z,1.58
2023-04-02T00:43:14.646Z,1.35
2023-04-02T00:43:29.807Z,2.40
2023-04-02T00:43:44.584Z,2.72
2023-04-02T00:43:59.974Z,2.95
2023-04-02T00:44:15.303Z,3.08
2023-04-02T00:44:28.279Z,2.70
2023-04-02T00:44:42.073Z,2.65
2023-04-02T00:44:54.070Z,2.75
2023-04-02T00:45:15.241Z,4.07
2023-04-02T00:45:35.742Z,3.03
2023-04-02T00:45:56.225Z,4.63
2023-04-02T00:46:16.478Z,1.50
2023-04-02T00:46:39.568Z,1.80
2023-04-02T00:46:52.456Z,2.03
2023-04-02T00:47:15.958Z,2.88
2023-04-02T00:47:39.109Z,2.28
2023-04-02T00:47:51.560Z,1.60
2023-04-02T00:48:23.555Z,1.50
2023-04-02T00:48:45.052Z,4.70
2023-04-02T00:49:35.975Z,3.20
2023-04-02T00:49:51.897Z,2.05
2023-04-02T00:50:15.374Z,2.50
2023-04-02T00:50:32.619Z,3.20
2023-04-02T00:50:45.576Z,2.45
2023-04-02T00:51:00.131Z,3.13
2023-04-02T00:51:19.378Z,4.50
2023-04-02T00:51:41.748Z,3.35
2023-04-02T00:51:57.619Z,1.88
2023-04-02T00:52:13.272Z,1.77
2023-04-02T00:52:28.253Z,2.13
2023-04-02T00:52:43.064Z,2.70
2023-04-02T00:52:56.529Z,2.63
2023-04-02T00:53:18.019Z,2.13
2023-04-02T00:53:30.976Z,1.77
2023-04-02T00:53:45.916Z,2.05
2023-04-02T00:54:01.516Z,7.18
2023-04-02T00:54:13.686Z,8.57
2023-04-02T00:54:29.494Z,6.10
2023-04-02T00:54:56.057Z,6.10
2023-04-02T00:55:19.301Z,1.67
2023-04-02T00:55:41.837Z,1.25
2023-04-02T00:55:53.436Z,1.73
2023-04-02T00:56:19.521Z,2.15
2023-04-02T00:56:48.888Z,3.40
2023-04-02T00:57:01.769Z,2.33
2023-04-02T00:57:20.955Z,2.15
2023-04-02T00:57:32.976Z,1.58
2023-04-02T00:57:45.540Z,1.45
2023-04-02T00:57:58.809Z,3.60
2023-04-02T00:58:48.246Z,3.53
2023-04-02T00:59:00.243Z,1.90
2023-04-02T00:59:29.907Z,2.03
2023-04-02T00:59:54.320Z,3.55
2023-04-02T01:00:36.112Z,1.52
2023-04-02T01:00:51.140Z,1.63
2023-04-02T01:01:03.033Z,1.63
2023-04-02T01:01:20.220Z,1.27
2023-04-02T01:01:37.329Z,2.72
2023-04-02T01:01:53.583Z,1.65
2023-04-02T01:02:14.519Z,5.00
2023-04-02T01:02:32.304Z,5.50
2023-04-02T01:02:44.011Z,2.25
2023-04-02T01:03:37.109Z,1.65
2023-04-02T01:03:54.476Z,1.95
2023-04-02T01:04:06.107Z,1.80
2023-04-02T01:04:29.684Z,1.83
2023-04-02T01:04:41.643Z,1.58
2023-04-02T01:05:00.402Z,2.17
2023-04-02T01:05:14.856Z,2.95
2023-04-02T01:05:26.412Z,2.42
2023-04-02T01:05:38.080Z,2.22
2023-04-02T01:05:57.382Z,1.60
2023-04-02T01:06:16.058Z,2.20
2023-04-02T01:06:33.870Z,2.45
2023-04-02T01:06:45.316Z,1.65
2023-04-02T01:06:57.700Z,1.52
2023-04-02T01:07:12.123Z,1.80
2023-04-02T01:07:55.685Z,4.03
2023-04-02T01:08:21.979Z,2.33
2023-04-02T01:08:54.617Z,1.25
2023-04-02T01:09:28.715Z,2.30
2023-04-02T01:09:52.584Z,1.98
2023-04-02T01:10:25.303Z,2.10
2023-04-02T01:10:51.419Z,4.70
2023-04-02T01:11:21.109Z,2.67
2023-04-02T01:11:41.736Z,3.50
2023-04-02T01:12:05.281Z,2.40
2023-04-02T01:12:39.527Z,2.05
2023-04-02T01:13:18.336Z,1.85
2023-04-02T01:13:45.609Z,1.33
2023-04-02T01:14:16.563Z,1.60
2023-04-02T01:14:46.754Z,2.63
2023-04-02T01:15:18.256Z,1.58
2023-04-02T01:15:39.345Z,2.33
2023-04-02T01:16:02.903Z,2.13
2023-04-02T01:16:26.468Z,1.63
2023-04-02T01:16:52.233Z,1.80
2023-04-02T01:17:08.718Z,1.85
2023-04-02T01:17:41.577Z,2.08
2023-04-02T01:18:04.338Z,3.55
2023-04-02T01:18:42.070Z,1.88
2023-04-02T01:19:07.819Z,3.95
2023-04-02T01:19:39.242Z,1.67
2023-04-02T01:20:05.826Z,2.25
2023-04-02T01:20:29.379Z,1.20
2023-04-02T01:20:56.227Z,1.63
2023-04-02T01:21:36.976Z,2.10
2023-04-02T01:22:05.251Z,2.30
2023-04-02T01:22:19.562Z,1.42
2023-04-02T01:22:44.584Z,1.52
2023-04-02T01:23:14.674Z,1.80
2023-04-02T01:23:52.909Z,2.55
2023-04-02T01:24:07.242Z,5.65
2023-04-02T01:24:20.610Z,4.63
2023-04-02T01:24:34.696Z,4.28
2023-04-02T01:24:47.443Z,3.97
2023-04-02T01:24:58.946Z,3.38
2023-04-02T01:25:17.459Z,5.05
2023-04-02T01:25:54.407Z,6.05
2023-04-02T01:26:16.848Z,5.72
2023-04-02T01:26:40.441Z,6.88
2023-04-02T01:26:57.315Z,6.55
2023-04-02T01:27:27.760Z,9.50
2023-04-02T01:27:48.047Z,4.25
2023-04-02T01:28:06.160Z,3.33
2023-04-02T01:28:43.148Z,6.75
2023-04-02T01:29:15.176Z,5.07
2023-04-02T01:29:40.065Z,7.13
2023-04-02T01:29:55.944Z,5.57
2023-04-02T01:30:09.332Z,5.20
2023-04-02T01:30:21.205Z,5.30
2023-04-02T01:30:35.856Z,6.03
2023-04-02T01:30:54.362Z,6.78
2023-04-02T01:31:06.028Z,5.47
2023-04-02T01:31:17.807Z,5.03
2023-04-02T01:31:30.941Z,6.40
2023-04-02T01:31:45.591Z,7.55
2023-04-02T01:32:02.457Z,5.95
2023-04-02T01:32:18.576Z,4.20
2023-04-02T01:32:30.858Z,4.95
2023-04-02T01:32:43.070Z,4.82
2023-04-02T01:32:54.622Z,5.57
2023-04-02T01:33:06.269Z,5.43
2023-04-02T01:33:21.410Z,7.18
2023-04-02T01:33:35.047Z,9.10
2023-04-02T01:33:47.926Z,7.72
2023-04-02T01:34:00.573Z,4.90
2023-04-02T01:34:17.185Z,5.85
2023-04-02T01:34:29.595Z,6.73
2023-04-02T01:34:43.041Z,5.97
2023-04-02T01:34:55.609Z,7.53
2023-04-02T01:35:08.035Z,7.75
2023-04-02T01:35:21.554Z,5.63
2023-04-02T01:35:38.794Z,7.05
2023-04-02T01:36:08.847Z,11.50
2023-04-02T01:36:28.879Z,8.13
2023-04-02T01:37:01.973Z,7.20
2023-04-02T01:37:28.881Z,9.40
2023-04-02T01:38:01.828Z,5.82
2023-04-02T01:38:34.408Z,5.72
2023-04-02T01:39:19.245Z,5.35
2023-04-02T01:39:53.259Z,5.78
2023-04-02T01:40:25.325Z,6.35
2023-04-02T01:40:50.679Z,4.95
2023-04-02T01:41:24.857Z,5.47
2023-04-02T01:41:47.753Z,7.47
2023-04-02T01:42:04.411Z,10.65
2023-04-02T01:42:29.874Z,6.13
2023-04-02T01:42:46.981Z,6.18
2023-04-02T01:43:17.304Z,5.55
2023-04-02T01:43:35.267Z,7.05
2023-04-02T01:43:54.670Z,8.63
2023-04-02T01:44:13.907Z,9.70
2023-04-02T01:44:39.779Z,6.15
2023-04-02T01:45:02.498Z,6.55
2023-04-02T01:45:17.071Z,6.32
2023-04-02T01:45:28.751Z,6.40
2023-04-02T01:45:42.713Z,5.38
2023-04-02T01:45:54.474Z,4.85
2023-04-02T01:46:25.915Z,7.28
2023-04-02T01:46:41.890Z,6.50
2023-04-02T01:46:53.739Z,4.95
2023-04-02T01:47:10.852Z,5.72
2023-04-02T01:47:24.655Z,7.78
2023-04-02T01:47:37.530Z,6.65
2023-04-02T01:47:49.981Z,5.68
2023-04-02T01:48:14.883Z,5.13
2023-04-02T01:48:30.226Z,5.07
2023-04-02T01:48:42.475Z,7.30
2023-04-02T01:48:55.328Z,7.43
2023-04-02T01:49:19.434Z,6.43
2023-04-02T01:49:30.991Z,5.38
2023-04-02T01:49:44.300Z,5.97
2023-04-02T01:50:04.658Z,6.68
2023-04-02T01:50:19.040Z,6.18
2023-04-02T01:50:40.076Z,6.05
2023-04-02T01:50:53.808Z,6.40
2023-04-02T01:51:07.851Z,5.15
2023-04-02T01:51:34.159Z,5.80
2023-04-02T01:51:53.521Z,6.55
2023-04-02T01:52:04.965Z,8.15
2023-04-02T01:52:25.967Z,6.43
2023-04-02T01:52:43.217Z,8.90
2023-04-02T01:52:58.238Z,12.35
2023-04-02T01:53:13.541Z,10.40
2023-04-02T01:53:27.677Z,8.48
2023-04-02T01:53:39.166Z,8.57
2023-04-02T01:53:50.756Z,8.20
2023-04-02T01:54:04.776Z,7.38
2023-04-02T01:54:16.926Z,5.55
2023-04-02T01:54:28.872Z,5.82
2023-04-02T01:54:41.781Z,5.50
2023-04-02T01:54:53.166Z,7.25
2023-04-02T01:55:05.262Z,10.02
2023-04-02T01:55:20.187Z,8.80
2023-04-02T01:55:50.429Z,8.13
2023-04-02T01:56:02.625Z,9.02
2023-04-02T01:56:14.184Z,9.05
2023-04-02T01:56:27.497Z,8.57
2023-04-02T01:56:40.744Z,8.43
2023-04-02T01:56:52.506Z,7.43
2023-04-02T01:57:05.128Z,6.28
2023-04-02T01:57:16.733Z,5.60
2023-04-02T01:57:28.653Z,8.68
2023-04-02T01:57:47.985Z,11.20
2023-04-02T01:58:01.160Z,12.93
2023-04-02T01:58:15.892Z,8.45
2023-04-02T01:58:31.125Z,6.65
2023-04-02T01:58:42.640Z,7.63
2023-04-02T01:58:55.884Z,8.80
2023-04-02T01:59:08.062Z,10.05
2023-04-02T01:59:22.551Z,8.40
2023-04-02T01:59:34.256Z,7.72
2023-04-02T01:59:45.919Z,7.78
2023-04-02T01:59:59.655Z,9.70
2023-04-02T02:00:14.752Z,8.82
2023-04-02T02:00:28.730Z,6.35
2023-04-02T02:01:20.736Z,6.63
2023-04-02T02:01:41.605Z,6.72
2023-04-02T02:02:05.724Z,6.57
2023-04-02T02:02:17.438Z,9.38
2023-04-02T02:02:29.104Z,11.63
2023-04-02T02:02:42.362Z,9.20
2023-04-02T02:02:54.105Z,6.57
2023-04-02T02:03:06.182Z,5.15
2023-04-02T02:03:19.519Z,6.18
2023-04-02T02:03:31.673Z,13.50
2023-04-02T02:03:44.820Z,12.55
2023-04-02T02:03:56.610Z,8.52
2023-04-02T02:04:12.808Z,10.55
2023-04-02T02:04:25.068Z,8.18
2023-04-02T02:04:36.655Z,6.90
2023-04-02T02:04:48.532Z,7.55
2023-04-02T02:05:00.040Z,7.10
2023-04-02T02:05:17.141Z,7.95
2023-04-02T02:05:29.200Z,8.35
2023-04-02T02:05:41.015Z,7.72
2023-04-02T02:05:53.110Z,7.47
2023-04-02T02:06:05.918Z,6.05
2023-04-02T02:06:19.042Z,8.00
2023-04-02T02:06:30.838Z,8.05
2023-04-02T02:06:43.928Z,5.55
2023-04-02T02:06:56.959Z,6.82
2023-04-02T02:07:16.056Z,6.82
2023-04-02T02:07:29.867Z,6.28
2023-04-02T02:07:42.250Z,6.80
2023-04-02T02:07:55.597Z,6.40
2023-04-02T02:08:20.309Z,6.75
2023-04-02T02:08:34.424Z,7.25
2023-04-02T02:08:54.561Z,7.47
2023-04-02T02:09:07.979Z,8.95
2023-04-02T02:09:27.424Z,7.63
2023-04-02T02:09:46.373Z,5.57
2023-04-02T02:09:57.872Z,5.70
2023-04-02T02:10:21.781Z,6.32
2023-04-02T02:10:36.393Z,7.13
2023-04-02T02:10:49.305Z,6.53
2023-04-02T02:11:02.329Z,7.35
2023-04-02T02:11:26.576Z,7.82
2023-04-02T02:11:38.936Z,14.25
2023-04-02T02:11:50.933Z,11.90
2023-04-02T02:12:04.097Z,12.13
2023-04-02T02:12:15.970Z,10.48
2023-04-02T02:12:27.487Z,9.30
2023-04-02T02:12:38.873Z,9.48
2023-04-02T02:12:50.348Z,11.07
2023-04-02T02:13:02.151Z,9.55
2023-04-02T02:13:16.570Z,7.72
2023-04-02T02:13:28.066Z,8.02
2023-04-02T02:13:41.591Z,10.07
2023-04-02T02:13:58.074Z,11.15
2023-04-02T02:14:16.631Z,10.40
2023-04-02T02:14:29.378Z,9.40
2023-04-02T02:14:47.513Z,9.70
2023-04-02T02:14:58.951Z,13.63
2023-04-02T02:15:19.350Z,13.63
2023-04-02T02:15:33.740Z,11.27
2023-04-02T02:15:45.537Z,10.82
2023-04-02T02:15:59.045Z,10.35
2023-04-02T02:16:16.464Z,12.63
2023-04-02T02:16:30.232Z,12.35
2023-04-02T02:16:41.993Z,10.73
2023-04-02T02:16:55.146Z,10.70
2023-04-02T02:17:07.982Z,10.88
2023-04-02T02:17:27.195Z,10.50
2023-04-02T02:17:38.755Z,10.45
2023-04-02T02:17:54.053Z,10.73
2023-04-02T02:18:06.528Z,10.45
2023-04-02T02:18:22.854Z,11.32
2023-04-02T02:18:34.543Z,12.32
2023-04-02T02:18:51.786Z,12.07
2023-04-02T02:19:04.813Z,10.63
2023-04-02T02:19:55.847Z,12.05
2023-04-02T02:20:09.315Z,10.48
2023-04-02T02:20:22.113Z,11.38
2023-04-02T02:20:34.801Z,11.68
2023-04-02T02:20:47.267Z,11.07
2023-04-02T02:21:01.063Z,12.13
2023-04-02T02:21:23.971Z,13.13
2023-04-02T02:21:41.385Z,13.02
2023-04-02T02:21:56.707Z,11.93
2023-04-02T02:22:31.060Z,12.98
2023-04-02T02:22:48.337Z,13.55
2023-04-02T02:23:01.810Z,14.75
2023-04-02T02:23:14.552Z,16.45
2023-04-02T02:23:28.967Z,16.80
2023-04-02T02:23:40.506Z,13.85
2023-04-02T02:23:52.497Z,14.30
2023-04-02T02:24:05.222Z,14.60
2023-04-02T02:24:28.487Z,14.48
2023-04-02T02:24:40.730Z,13.00
2023-04-02T02:24:53.366Z,13.38
2023-04-02T02:25:11.201Z,15.05
2023-04-02T02:25:26.674Z,13.75
2023-04-02T02:25:39.053Z,12.82
2023-04-02T02:25:50.519Z,15.63
2023-04-02T02:26:02.084Z,14.70
2023-04-02T02:26:14.992Z,15.07
2023-04-02T02:26:29.399Z,15.10
2023-04-02T02:26:42.877Z,13.27
2023-04-02T02:27:00.298Z,15.25
2023-04-02T02:27:14.601Z,13.70
2023-04-02T02:27:25.910Z,11.50
2023-04-02T02:27:46.974Z,12.20
2023-04-02T02:28:33.070Z,13.73
2023-04-02T02:28:49.942Z,15.23
2023-04-02T02:29:06.660Z,14.57
2023-04-02T02:29:20.598Z,11.00
2023-04-02T02:29:37.167Z,10.70
2023-04-02T02:30:20.919Z,13.70
2023-04-02T02:30:32.319Z,14.18
2023-04-02T02:30:52.711Z,14.32
2023-04-02T02:31:11.412Z,17.90
2023-04-02T02:31:29.664Z,20.38
2023-04-02T02:31:43.752Z,15.43
2023-04-02T02:31:57.681Z,14.50
2023-04-02T02:32:11.737Z,16.30
2023-04-02T02:32:28.589Z,17.08
2023-04-02T02:32:48.106Z,18.38
2023-04-02T02:33:14.701Z,18.00
2023-04-02T02:33:38.940Z,15.88
2023-04-02T02:33:52.950Z,21.92
2023-04-02T02:34:12.368Z,19.30
2023-04-02T02:34:34.001Z,16.42
2023-04-02T02:35:08.043Z,16.05
2023-04-02T02:35:42.238Z,15.93
2023-04-02T02:35:59.570Z,18.08
2023-04-02T02:36:19.832Z,18.83
2023-04-02T02:36:47.075Z,14.48
2023-04-02T02:37:06.766Z,17.63
2023-04-02T02:37:28.122Z,18.52
2023-04-02T02:37:43.800Z,17.30
2023-04-02T02:38:05.925Z,17.23
2023-04-02T02:38:39.008Z,18.80
2023-04-02T02:39:13.155Z,16.75
2023-04-02T02:39:35.603Z,19.25
2023-04-02T02:39:53.519Z,18.80
2023-04-02T02:40:11.680Z,18.45
2023-04-02T02:40:45.177Z,16.23
2023-04-02T02:41:03.375Z,18.23
2023-04-02T02:41:42.650Z,17.98
2023-04-02T02:42:26.709Z,16.30
2023-04-02T02:42:49.124Z,18.08
2023-04-02T02:43:04.074Z,17.48
2023-04-02T02:43:18.033Z,17.15
2023-04-02T02:43:30.167Z,17.83
2023-04-02T02:44:00.525Z,17.45
2023-04-02T02:44:20.821Z,17.23
2023-04-02T02:44:39.660Z,17.58
2023-04-02T02:44:53.920Z,17.17
2023-04-02T02:45:13.078Z,17.17
2023-04-02T02:45:28.981Z,19.23
2023-04-02T02:45:43.150Z,18.02
2023-04-02T02:45:57.491Z,16.65
2023-04-02T02:46:13.903Z,16.15
2023-04-02T02:46:27.624Z,17.42
2023-04-02T02:46:52.610Z,19.70
2023-04-02T02:47:14.950Z,18.02
2023-04-02T02:47:33.190Z,18.77
2023-04-02T02:47:45.811Z,20.27
2023-04-02T02:47:58.664Z,20.02
2023-04-02T02:48:14.938Z,19.85
2023-04-02T02:48:36.310Z,18.05
2023-04-02T02:48:48.740Z,17.35
2023-04-02T02:49:03.321Z,19.50
2023-04-02T02:49:18.126Z,22.35
2023-04-02T02:49:36.193Z,21.10
2023-04-02T02:49:51.891Z,18.98
2023-04-02T02:50:08.498Z,19.92
2023-04-02T02:50:30.030Z,22.27
2023-04-02T02:50:42.450Z,20.02
2023-04-02T02:50:56.266Z,18.83
2023-04-02T02:51:20.400Z,18.77
2023-04-02T02:51:44.051Z,18.70
2023-04-02T02:52:10.337Z,17.95
2023-04-02T02:52:28.135Z,20.80
2023-04-02T02:52:45.108Z,20.42
2023-04-02T02:52:59.423Z,19.35
2023-04-02T02:53:31.178Z,18.00
2023-04-02T02:53:50.760Z,17.27
2023-04-02T02:54:05.203Z,17.85
2023-04-02T02:54:18.397Z,18.33
2023-04-02T02:54:32.331Z,16.83
2023-04-02T02:54:54.921Z,17.13
2023-04-02T02:55:10.817Z,17.70
2023-04-02T02:55:27.456Z,19.95
2023-04-02T02:55:40.040Z,18.83
2023-04-02T02:55:58.546Z,15.80
2023-04-02T02:56:10.162Z,19.88
2023-04-02T02:56:23.832Z,20.17
2023-04-02T02:56:40.705Z,19.42
2023-04-02T02:57:00.555Z,16.83
2023-04-02T02:57:17.852Z,17.92
2023-04-02T02:57:34.343Z,16.20
2023-04-02T02:58:11.941Z,16.90
2023-04-02T02:58:28.681Z,16.15
2023-04-02T02:58:40.228Z,16.38
2023-04-02T02:58:53.792Z,17.38
2023-04-02T02:59:09.200Z,17.67
2023-04-02T02:59:23.014Z,19.23
2023-04-02T02:59:35.007Z,19.05
2023-04-02T02:59:47.330Z,20.73
2023-04-02T03:00:01.554Z,19.25
2023-04-02T03:00:13.580Z,16.60
2023-04-02T03:00:26.617Z,17.75
2023-04-02T03:00:39.063Z,18.00
2023-04-02T03:00:50.509Z,20.75
2023-04-02T03:01:05.463Z,20.65
2023-04-02T03:01:17.066Z,22.08
2023-04-02T03:01:30.376Z,21.42
2023-04-02T03:01:44.307Z,20.05
2023-04-02T03:01:55.925Z,18.45
2023-04-02T03:02:07.764Z,18.33
2023-04-02T03:02:19.496Z,17.58
2023-04-02T03:02:35.117Z,15.90
2023-04-02T03:02:47.827Z,15.32
2023-04-02T03:03:00.060Z,12.88
2023-04-02T03:03:16.440Z,9.18
2023-04-02T03:03:32.944Z,9.43
2023-04-02T03:03:46.286Z,13.18
2023-04-02T03:03:58.062Z,13.88
2023-04-02T03:04:09.934Z,12.43
2023-04-02T03:04:24.118Z,11.27
2023-04-02T03:04:36.316Z,11.20
2023-04-02T03:04:51.321Z,12.20
2023-04-02T03:05:03.453Z,14.15
2023-04-02T03:05:21.701Z,13.90
2023-04-02T03:05:33.730Z,12.87
2023-04-02T03:05:51.581Z,14.13
2023-04-02T03:06:06.886Z,15.55
2023-04-02T03:06:18.360Z,15.85
2023-04-02T03:06:30.172Z,15.45
2023-04-02T03:06:41.919Z,12.40
2023-04-02T03:06:55.866Z,15.65
2023-04-02T03:07:08.173Z,16.33
2023-04-02T03:07:21.861Z,14.23
2023-04-02T03:07:34.099Z,14.38
2023-04-02T03:07:53.428Z,15.57
2023-04-02T03:08:07.294Z,16.15
2023-04-02T03:08:33.990Z,15.30
2023-04-02T03:09:09.074Z,15.30
2023-04-02T03:09:38.980Z,18.33
2023-04-02T03:10:05.539Z,16.67
2023-04-02T03:10:22.912Z,21.73
2023-04-02T03:10:58.672Z,22.77
2023-04-02T03:11:44.101Z,24.10
2023-04-02T03:12:20.599Z,24.13
2023-04-02T03:12:41.432Z,19.05
2023-04-02T03:13:14.671Z,18.60
2023-04-02T03:13:31.615Z,20.90
2023-04-02T03:13:48.750Z,20.95
2023-04-02T03:14:25.518Z,20.13
2023-04-02T03:14:48.824Z,20.30
2023-04-02T03:15:06.060Z,21.35
2023-04-02T03:15:32.293Z,19.42
2023-04-02T03:15:55.584Z,16.33
2023-04-02T03:16:17.143Z,18.98
2023-04-02T03:16:33.479Z,23.20
2023-04-02T03:16:49.888Z,17.92
2023-04-02T03:17:12.355Z,16.17
2023-04-02T03:18:09.841Z,20.25
2023-04-02T03:18:24.320Z,16.70
2023-04-02T03:18:52.666Z,14.90
2023-04-02T03:19:38.511Z,15.63
2023-04-02T03:19:58.223Z,18.25
2023-04-02T03:20:12.624Z,16.02
2023-04-02T03:20:53.474Z,15.52
2023-04-02T03:21:16.481Z,20.13
2023-04-02T03:21:34.167Z,17.27
2023-04-02T03:21:52.204Z,15.10
2023-04-02T03:22:14.133Z,16.65
2023-04-02T03:22:31.122Z,19.48
2023-04-02T03:22:51.879Z,17.83
2023-04-02T03:23:44.013Z,16.20
2023-04-02T03:24:06.220Z,13.65
2023-04-02T03:24:22.638Z,13.15
2023-04-02T03:24:55.599Z,13.52
2023-04-02T03:25:32.521Z,13.60
2023-04-02T03:25:52.331Z,7.38
2023-04-02T03:26:18.248Z,5.70
2023-04-02T03:26:55.515Z,7.78
2023-04-02T03:27:31.247Z,8.02
2023-04-02T03:27:48.837Z,8.85
2023-04-02T03:28:04.958Z,6.65
2023-04-02T03:28:22.765Z,7.15
2023-04-02T03:28:41.371Z,10.68
2023-04-02T03:29:01.785Z,13.27
2023-04-02T03:29:25.904Z,9.75
2023-04-02T03:29:43.195Z,11.27
2023-04-02T03:30:19.021Z,12.07
2023-04-02T03:30:39.522Z,17.15
2023-04-02T03:31:05.696Z,18.33
2023-04-02T03:31:24.942Z,16.42
2023-04-02T03:31:44.784Z,18.95
2023-04-02T03:32:12.048Z,17.90
2023-04-02T03:32:29.232Z,18.73
2023-04-02T03:32:43.859Z,19.70
2023-04-02T03:33:04.856Z,16.77
2023-04-02T03:33:27.656Z,19.67
2023-04-02T03:33:50.156Z,29.00
2023-04-02T03:34:11.786Z,19.55
2023-04-02T03:34:26.063Z,19.80
2023-04-02T03:34:53.717Z,21.50
2023-04-02T03:35:22.738Z,23.98
2023-04-02T03:35:38.301Z,22.38
2023-04-02T03:36:19.816Z,22.98
2023-04-02T03:36:37.943Z,25.55
2023-04-02T03:37:07.266Z,25.70
2023-04-02T03:37:31.042Z,23.60
2023-04-02T03:37:48.139Z,24.33
2023-04-02T03:38:11.640Z,27.75
2023-04-02T03:38:28.823Z,25.63
2023-04-02T03:38:55.941Z,25.15
2023-04-02T03:39:16.476Z,25.63
2023-04-02T03:39:54.985Z,26.77
2023-04-02T03:40:17.779Z,30.27
2023-04-02T03:40:34.964Z,24.80
2023-04-02T03:40:59.844Z,26.65
2023-04-02T03:41:18.528Z,26.20
2023-04-02T03:41:38.076Z,28.30
2023-04-02T03:41:55.159Z,28.35
2023-04-02T03:42:14.296Z,27.48
2023-04-02T03:42:29.991Z,28.15
2023-04-02T03:42:48.055Z,25.45
2023-04-02T03:43:15.284Z,26.75
2023-04-02T03:43:31.618Z,29.73
2023-04-02T03:43:47.801Z,34.58
2023-04-02T03:44:04.796Z,31.65
2023-04-02T03:44:37.510Z,34.45
2023-04-02T03:45:02.945Z,27.05
2023-04-02T03:45:23.264Z,25.58
2023-04-02T03:45:41.106Z,25.17
2023-04-02T03:45:58.453Z,26.30
2023-04-02T03:46:13.897Z,25.45
2023-04-02T03:46:32.934Z,25.58
2023-04-02T03:46:54.061Z,28.13
2023-04-02T03:47:14.538Z,27.63
2023-04-02T03:47:36.812Z,29.75
2023-04-02T03:48:11.324Z,28.15
2023-04-02T03:48:28.785Z,24.60
2023-04-02T03:48:48.377Z,25.63
2023-04-02T03:49:09.606Z,27.38
2023-04-02T03:49:48.327Z,28.15
2023-04-02T03:50:12.013Z,33.05
2023-04-02T03:50:26.894Z,28.42
2023-04-02T03:50:46.104Z,27.48
2023-04-02T03:51:06.897Z,27.75
2023-04-02T03:51:21.525Z,27.70
2023-04-02T03:51:52.681Z,30.17
2023-04-02T03:52:10.635Z,31.55
2023-04-02T03:52:27.905Z,29.42
2023-04-02T03:52:39.682Z,29.42
2023-04-02T03:52:51.590Z,31.25
2023-04-02T03:53:04.592Z,31.88
2023-04-02T03:53:16.155Z,31.63
2023-04-02T03:53:28.716Z,31.58
2023-04-02T03:53:40.368Z,33.20
2023-04-02T03:53:51.785Z,32.17
2023-04-02T03:54:04.607Z,31.85
2023-04-02T03:54:17.121Z,30.92
2023-04-02T03:54:28.738Z,33.67
2023-04-02T03:54:40.537Z,32.05
2023-04-02T03:55:14.915Z,28.95
2023-04-02T03:55:30.377Z,29.33
2023-04-02T03:55:43.028Z,34.90
2023-04-02T03:55:55.316Z,34.53
2023-04-02T03:56:06.930Z,34.77
2023-04-02T03:56:35.914Z,35.92
2023-04-02T03:56:47.959Z,37.72
2023-04-02T03:57:00.167Z,37.05
2023-04-02T03:57:24.771Z,34.60
2023-04-02T03:57:42.945Z,38.78
2023-04-02T03:58:19.085Z,32.47
2023-04-02T03:58:44.206Z,31.42
2023-04-02T03:59:06.272Z,30.13
2023-04-02T03:59:59.234Z,32.08
2023-04-02T04:00:24.553Z,29.17
2023-04-02T04:00:41.649Z,34.83
2023-04-02T04:01:06.332Z,31.73
2023-04-02T04:01:24.331Z,29.60
2023-04-02T04:01:43.390Z,31.40
2023-04-02T04:02:11.620Z,27.73
2023-04-02T04:02:43.942Z,30.23
2023-04-02T04:02:59.448Z,29.17
2023-04-02T04:03:25.008Z,29.40
2023-04-02T04:03:43.410Z,28.15
2023-04-02T04:04:03.037Z,29.77